Time;durP1;ratioP1;P1;durP2;ratioP2;P2;SDS_P1;SDS_P2;PMS_P1;PMS_P2;Temp;Humidity;BMP_temperature;BMP_pressure;BME280_temperature;BME280_humidity;BME280_pressure;Samples;Min_cycle;Max_cycle;Signal;HPM_P1;HPM_P2
2023/06/26 00:01:43;;;;;;;;;;;;;;;21.82;90.81;101123.00;13052250;22;20395;-69
2023/06/26 00:06:45;;;;;;;;;;;;;;;21.75;91.42;101121.94;13052951;22;19919;-70
2023/06/26 00:11:47;;;;;;;;;;;;;;;21.79;86.75;101110.84;13052077;22;19919;-70
2023/06/26 00:16:49;;;;;;;;;;;;;;;21.67;89.87;101114.72;13052935;22;20320;-70
2023/06/26 00:21:52;;;;;;;;;;;;;;;21.75;87.71;101101.47;13056913;22;19923;-70
2023/06/26 00:26:54;;;;;;;;;;;;;;;21.76;87.32;101100.47;13056235;22;19982;-69
2023/06/26 00:31:56;;;;;;;;;;;;;;;21.60;89.52;101090.53;13056556;22;19929;-69
2023/06/26 00:36:59;;;;;;;;;;;;;;;21.71;87.76;101081.44;13056614;22;19925;-69
2023/06/26 00:42:02;;;;;;;;;;;;;;;21.66;88.75;101078.41;13055687;22;19919;-70
2023/06/26 00:47:04;;;;;;;;;;;;;;;21.71;86.45;101076.94;13055588;22;20399;-71
2023/06/26 00:52:06;;;;;;;;;;;;;;;21.64;89.41;101081.22;13029171;22;20055;-69
2023/06/26 00:57:08;;;;;;;;;;;;;;;21.70;86.12;101085.09;13029078;22;19933;-70
2023/06/26 01:02:11;;;;;;;;;;;;;;;22.90;71.73;101072.81;13055277;22;20001;-69
2023/06/26 01:07:13;;;;;;;;;;;;;;;22.89;73.22;101068.47;13055941;22;19934;-70
2023/06/26 01:12:15;;;;;;;;;;;;;;;23.42;69.49;101071.78;13028768;22;19926;-70
2023/06/26 01:17:17;;;;;;;;;;;;;;;23.50;68.12;101068.28;13055026;22;20327;-71
2023/06/26 01:22:26;;;;;;;;;;;;;;;23.55;67.37;101065.94;13055723;22;19919;-71
2023/06/26 01:27:29;;;;;;;;;;;;;;;23.61;67.48;101073.28;13054521;22;19946;-70
2023/06/26 01:32:32;;;;;;;;;;;;;;;23.50;68.29;101062.91;13028412;22;20001;-70
2023/06/26 01:37:34;;;;;;;;;;;;;;;23.46;68.79;101067.78;13028416;22;19923;-71
2023/06/26 01:42:36;;;;;;;;;;;;;;;23.35;68.28;101073.44;13055529;22;19929;-70
2023/06/26 01:47:38;;;;;;;;;;;;;;;23.34;69.32;101082.47;13028042;22;20324;-71
2023/06/26 01:52:42;;;;;;;;;;;;;;;23.18;69.45;101099.28;13027887;22;19923;-71
2023/06/26 01:57:46;;;;;;;;;;;;;;;22.81;71.07;101095.13;13002563;22;19935;-71
2023/06/26 02:02:48;;;;;;;;;;;;;;;22.79;71.30;101100.63;13027895;22;19990;-70
2023/06/26 02:07:51;;;;;;;;;;;;;;;22.72;72.07;101102.28;13053875;22;19919;-71
2023/06/26 02:12:53;;;;;;;;;;;;;;;22.63;72.48;101113.91;13054554;22;19919;-71
2023/06/26 02:17:55;;;;;;;;;;;;;;;22.56;71.68;101115.53;13053738;22;19919;-71
2023/06/26 02:22:57;;;;;;;;;;;;;;;22.18;72.89;101117.63;13054391;22;19986;-70
2023/06/26 02:28:00;;;;;;;;;;;;;;;22.16;73.59;101122.28;13053646;22;19991;-71
2023/06/26 02:33:02;;;;;;;;;;;;;;;22.22;73.32;101110.97;13054159;22;19925;-70
2023/06/26 02:38:04;;;;;;;;;;;;;;;22.01;74.48;101114.84;13054119;22;19919;-71
2023/06/26 02:43:06;;;;;;;;;;;;;;;21.96;74.53;101111.81;13053772;22;19923;-71
2023/06/26 02:48:09;;;;;;;;;;;;;;;21.87;75.41;101108.25;13026875;22;19990;-71
2023/06/26 02:53:11;;;;;;;;;;;;;;;21.60;77.29;101117.19;13052895;22;19990;-69
2023/06/26 02:58:13;;;;;;;;;;;;;;;21.83;75.75;101120.19;13053821;22;19986;-71
2023/06/26 03:03:15;;;;;;;;;;;;;;;21.48;78.40;101134.34;13053705;22;19925;-71
2023/06/26 03:08:18;;;;;;;;;;;;;;;21.44;79.07;101135.63;13053645;22;19925;-70
2023/06/26 03:13:20;;;;;;;;;;;;;;;21.33;80.16;101144.66;13052759;22;19925;-71
2023/06/26 03:18:22;;;;;;;;;;;;;;;21.49;78.81;101160.84;13053560;22;19919;-70
2023/06/26 03:23:25;;;;;;;;;;;;;;;21.53;78.63;101153.38;13053411;22;19919;-71
2023/06/26 03:28:27;;;;;;;;;;;;;;;21.26;80.76;101155.06;13052326;22;20328;-71
2023/06/26 03:33:29;;;;;;;;;;;;;;;21.14;82.67;101156.25;13053231;22;19955;-71
2023/06/26 03:38:31;;;;;;;;;;;;;;;21.30;82.53;101155.59;13052529;22;20359;-71
2023/06/26 03:43:33;;;;;;;;;;;;;;;21.25;82.73;101180.03;13053261;22;19919;-71
2023/06/26 03:48:37;;;;;;;;;;;;;;;20.88;86.01;101180.03;13052480;22;19919;-71
2023/06/26 03:53:39;;;;;;;;;;;;;;;20.83;88.04;101172.53;13028675;22;20240;-72
2023/06/26 03:58:42;;;;;;;;;;;;;;;21.14;86.57;101172.22;13057395;22;19926;-71
2023/06/26 04:03:44;;;;;;;;;;;;;;;21.12;85.52;101168.88;13030241;22;19989;-71
2023/06/26 04:08:46;;;;;;;;;;;;;;;20.74;90.01;101174.22;13057143;22;19923;-71
2023/06/26 04:13:48;;;;;;;;;;;;;;;21.04;86.28;101182.09;13057032;22;19922;-71
2023/06/26 04:18:52;;;;;;;;;;;;;;;21.02;89.68;101187.56;13056155;22;20375;-70
2023/06/26 04:23:54;;;;;;;;;;;;;;;20.88;88.15;101202.19;13056887;22;19918;-70
2023/06/26 04:28:56;;;;;;;;;;;;;;;20.88;87.95;101210.19;13055757;22;20285;-71
2023/06/26 04:33:59;;;;;;;;;;;;;;;20.72;91.95;101232.06;13056559;22;19957;-71
2023/06/26 04:39:01;;;;;;;;;;;;;;;20.80;90.16;101222.53;13055750;22;20359;-71
2023/06/26 04:44:04;;;;;;;;;;;;;;;20.86;93.47;101224.59;13055697;22;20395;-70
2023/06/26 04:49:06;;;;;;;;;;;;;;;20.75;92.57;101234.44;13055610;22;20332;-71
2023/06/26 04:54:08;;;;;;;;;;;;;;;20.96;91.33;101230.72;13056189;22;19919;-71
2023/06/26 04:59:13;;;;;;;;;;;;;;;20.85;90.19;101237.06;13028288;22;20001;-71
2023/06/26 05:04:15;;;;;;;;;;;;;;;20.79;93.38;101245.63;13028446;22;20009;-71
2023/06/26 05:09:17;;;;;;;;;;;;;;;20.85;92.32;101242.41;13029016;22;19986;-71
2023/06/26 05:14:20;;;;;;;;;;;;;;;20.90;92.34;101242.81;13055767;22;19950;-70
2023/06/26 05:19:24;;;;;;;;;;;;;;;20.73;96.61;101243.56;13055789;22;19945;-71
2023/06/26 05:24:26;;;;;;;;;;;;;;;20.67;96.89;101244.94;13055703;22;19990;-71
2023/06/26 05:29:30;;;;;;;;;;;;;;;20.88;93.81;101251.91;13027684;22;19997;-70
2023/06/26 05:34:33;;;;;;;;;;;;;;;20.91;92.76;101257.78;13027546;22;20401;-70
2023/06/26 05:39:35;;;;;;;;;;;;;;;20.77;94.08;101272.38;13002313;22;19926;-71
2023/06/26 05:44:37;;;;;;;;;;;;;;;21.13;91.64;101277.03;13054483;22;19925;-71
2023/06/26 05:49:39;;;;;;;;;;;;;;;21.01;91.67;101292.34;13054328;22;19993;-71
2023/06/26 05:54:42;;;;;;;;;;;;;;;20.93;89.35;101300.22;13054993;22;19950;-71
2023/06/26 05:59:44;;;;;;;;;;;;;;;21.11;89.05;101297.66;13054908;22;19919;-70
2023/06/26 06:04:46;;;;;;;;;;;;;;;21.18;86.77;101306.72;13026905;22;19946;-70
2023/06/26 06:09:49;;;;;;;;;;;;;;;21.08;88.35;101320.09;13054752;22;19938;-71
2023/06/26 06:14:51;;;;;;;;;;;;;;;21.52;82.29;101331.03;13053293;22;19919;-71
2023/06/26 06:19:54;;;;;;;;;;;;;;;21.03;83.28;101342.78;13053723;22;20322;-70
2023/06/26 06:24:56;;;;;;;;;;;;;;;21.32;79.38;101345.38;13053393;22;20252;-69
2023/06/26 06:29:58;;;;;;;;;;;;;;;21.14;80.10;101356.75;13054291;22;19919;-70
2023/06/26 06:35:07;;;;;;;;;;;;;;;21.44;77.37;101368.19;13054165;22;19951;-71
2023/06/26 06:40:09;;;;;;;;;;;;;;;21.51;77.11;101376.47;13027822;22;19998;-70
2023/06/26 06:45:12;;;;;;;;;;;;;;;21.57;77.82;101381.22;13053180;22;19919;-70
2023/06/26 06:50:15;;;;;;;;;;;;;;;21.60;74.03;101386.25;13026101;22;20259;-71
2023/06/26 06:55:18;;;;;;;;;;;;;;;21.76;73.43;101368.81;13053781;22;19922;-70
2023/06/26 07:00:20;;;;;;;;;;;;;;;21.69;72.46;101389.88;13053057;22;20395;-71
2023/06/26 07:05:22;;;;;;;;;;;;;;;21.98;70.82;101396.91;13026672;22;19950;-70
2023/06/26 07:10:24;;;;;;;;;;;;;;;22.71;69.39;101404.00;13052873;22;20315;-70
2023/06/26 07:15:26;;;;;;;;;;;;;;;22.25;69.79;101404.84;13052704;22;19929;-71
2023/06/26 07:20:29;;;;;;;;;;;;;;;22.67;70.06;101419.50;13052741;22;19919;-71
2023/06/26 07:25:31;;;;;;;;;;;;;;;22.71;68.25;101431.56;13052928;22;19946;-70
2023/06/26 07:30:33;;;;;;;;;;;;;;;22.83;66.36;101426.84;13053329;22;19946;-72
2023/06/26 07:35:35;;;;;;;;;;;;;;;23.67;66.52;101428.13;13053221;22;19998;-70
2023/06/26 07:40:37;;;;;;;;;;;;;;;22.69;68.37;101443.38;13052460;22;20340;-71
2023/06/26 07:45:40;;;;;;;;;;;;;;;23.64;65.98;101451.66;13053219;22;19926;-71
2023/06/26 07:50:42;;;;;;;;;;;;;;;24.37;65.17;101439.63;13052405;22;20370;-71
2023/06/26 07:55:44;;;;;;;;;;;;;;;23.64;65.77;101451.66;13052996;22;19998;-71
2023/06/26 08:00:47;;;;;;;;;;;;;;;24.25;64.67;101465.84;13053109;22;19929;-70
2023/06/26 08:05:49;;;;;;;;;;;;;;;24.30;63.37;101455.50;13053013;22;19990;-70
2023/06/26 08:10:51;;;;;;;;;;;;;;;23.79;66.24;101475.94;13052928;22;19924;-71
2023/06/26 08:15:54;;;;;;;;;;;;;;;23.30;66.27;101471.97;13024908;22;20343;-71
2023/06/26 08:20:56;;;;;;;;;;;;;;;24.24;63.63;101465.03;13052949;22;19923;-71
2023/06/26 08:25:59;;;;;;;;;;;;;;;24.37;63.34;101456.50;13052247;22;19939;-70
2023/06/26 08:31:01;;;;;;;;;;;;;;;25.53;59.67;101462.84;13052738;22;20240;-72
2023/06/26 08:36:03;;;;;;;;;;;;;;;23.90;63.66;101467.69;13052653;22;19919;-71
2023/06/26 08:41:06;;;;;;;;;;;;;;;23.18;68.38;101494.56;13055913;22;19995;-71
2023/06/26 08:46:11;;;;;;;;;;;;;;;23.79;66.08;101490.19;13056524;22;19945;-71
2023/06/26 08:51:17;;;;;;;;;;;;;;;25.45;61.93;101493.16;13056375;22;19933;-71
2023/06/26 08:56:21;;;;;;;;;;;;;;;25.58;59.34;101490.78;13003099;22;20386;-70
2023/06/26 09:01:24;;;;;;;;;;;;;;;25.97;56.44;101494.59;13056129;22;19933;-70
2023/06/26 09:06:26;;;;;;;;;;;;;;;25.98;54.84;101495.44;13028887;22;19950;-71
2023/06/26 09:11:28;;;;;;;;;;;;;;;25.36;54.38;101512.94;13055960;22;19947;-71
2023/06/26 09:16:31;;;;;;;;;;;;;;;24.26;58.42;101513.84;13028719;22;19934;-70
2023/06/26 09:21:33;;;;;;;;;;;;;;;25.94;54.24;101521.72;13028639;22;19919;-71
2023/06/26 09:26:36;;;;;;;;;;;;;;;25.60;52.94;101525.47;13028148;22;19949;-71
2023/06/26 09:31:38;;;;;;;;;;;;;;;27.02;51.36;101533.72;13055535;22;19919;-70
2023/06/26 09:36:46;;;;;;;;;;;;;;;27.16;48.09;101538.28;13028829;22;20001;-72
2023/06/26 09:41:48;;;;;;;;;;;;;;;26.88;49.11;101530.78;13054519;22;19950;-71
2023/06/26 09:46:51;;;;;;;;;;;;;;;26.29;45.53;101525.84;13027374;22;20438;-70
2023/06/26 09:51:53;;;;;;;;;;;;;;;26.94;46.78;101539.97;13055013;22;19925;-71
2023/06/26 09:56:55;;;;;;;;;;;;;;;27.80;45.40;101556.75;13027826;22;19919;-71
2023/06/26 10:01:59;;;;;;;;;;;;;;;26.86;45.65;101553.44;13054904;22;19938;-70
2023/06/26 10:07:03;;;;;;;;;;;;;;;26.60;45.46;101564.47;13054799;22;19918;-71
2023/06/26 10:12:11;;;;;;;;;;;;;;;24.81;47.35;101570.59;13026875;22;20295;-70
2023/06/26 10:17:15;;;;;;;;;;;;;;;26.42;49.44;101554.81;13026679;22;20333;-70
2023/06/26 10:22:17;;;;;;;;;;;;;;;25.04;49.83;101577.03;13053699;22;20340;-70
2023/06/26 10:27:21;;;;;;;;;;;;;;;25.82;48.21;101574.91;13053797;22;19986;-70
2023/06/26 10:32:24;;;;;;;;;;;;;;;27.59;47.82;101580.84;13054269;22;19946;-70
2023/06/26 10:37:42;;;;;;;;;;;;;;;25.14;50.92;101597.47;13027137;22;19950;-71
2023/06/26 10:42:45;;;;;;;;;;;;;;;24.77;53.42;101604.91;13053379;22;19925;-70
2023/06/26 10:47:48;;;;;;;;;;;;;;;26.88;48.81;101591.72;13053251;22;20332;-70
2023/06/26 10:53:09;;;;;;;;;;;;;;;24.96;49.88;101590.41;13053017;22;19918;-70
2023/06/26 10:58:30;;;;;;;;;;;;;;;24.83;50.76;101600.72;13053828;22;19949;-70
2023/06/26 11:03:32;;;;;;;;;;;;;;;23.52;52.56;101624.81;13053448;22;19925;-71
2023/06/26 11:08:47;;;;;;;;;;;;;;;24.70;51.51;101614.59;13053689;22;19925;-70
2023/06/26 11:13:49;;;;;;;;;;;;;;;28.22;45.25;101602.94;13053583;22;19950;-70
2023/06/26 11:18:51;;;;;;;;;;;;;;;25.44;45.81;101624.69;13053579;22;19985;-70
2023/06/26 11:23:58;;;;;;;;;;;;;;;24.90;49.24;101623.22;13026249;22;19985;-70
2023/06/26 11:29:00;;;;;;;;;;;;;;;23.92;49.62;101635.03;13052600;22;19919;-70
2023/06/26 11:34:03;;;;;;;;;;;;;;;25.05;48.28;101639.50;13053228;22;19957;-71
2023/06/26 11:39:06;;;;;;;;;;;;;;;27.16;45.93;101635.03;13025450;22;19919;-70
2023/06/26 11:44:14;;;;;;;;;;;;;;;26.04;45.87;101645.00;13051662;22;19938;-69
2023/06/26 11:49:16;;;;;;;;;;;;;;;24.99;47.84;101653.53;13053293;22;19930;-69
2023/06/26 11:54:25;;;;;;;;;;;;;;;24.34;49.29;101668.22;13025281;22;20221;-68
2023/06/26 11:59:38;;;;;;;;;;;;;;;26.39;45.20;101659.03;13051689;22;19926;-69
2023/06/26 12:04:41;;;;;;;;;;;;;;;25.93;45.46;101675.66;13025281;22;19942;-69
2023/06/26 12:09:45;;;;;;;;;;;;;;;25.56;46.27;101685.03;13052288;22;19994;-68
2023/06/26 12:14:47;;;;;;;;;;;;;;;24.96;48.85;101686.81;13027607;22;20246;-69
2023/06/26 12:19:50;;;;;;;;;;;;;;;26.24;45.38;101685.72;13057051;22;19947;-69
2023/06/26 12:24:53;;;;;;;;;;;;;;;24.81;48.13;101685.75;13056060;22;19972;-69
2023/06/26 12:29:56;;;;;;;;;;;;;;;24.50;49.17;101713.00;13029164;22;19985;-69
2023/06/26 12:34:58;;;;;;;;;;;;;;;25.84;46.97;101698.09;13056658;22;19954;-69
2023/06/26 12:40:01;;;;;;;;;;;;;;;26.51;45.16;101690.72;13055543;22;20394;-69
2023/06/26 12:45:10;;;;;;;;;;;;;;;25.98;44.86;101707.38;13056597;22;19938;-69
2023/06/26 12:50:24;;;;;;;;;;;;;;;27.35;42.57;101697.47;13032078;22;19919;-69
2023/06/26 12:55:26;;;;;;;;;;;;;;;28.17;42.03;101688.78;13029087;22;20001;-69
2023/06/26 13:00:28;;;;;;;;;;;;;;;26.33;43.54;101690.09;13055457;22;19919;-69
2023/06/26 13:05:30;;;;;;;;;;;;;;;26.78;43.96;101688.66;13056145;22;19942;-69
2023/06/26 13:10:33;;;;;;;;;;;;;;;27.22;41.65;101681.91;13055983;22;19949;-68
2023/06/26 13:15:35;;;;;;;;;;;;;;;24.78;44.09;101703.00;13028859;22;19925;-69
2023/06/26 13:20:37;;;;;;;;;;;;;;;24.96;44.58;101702.91;13055836;22;19919;-69
2023/06/26 13:25:40;;;;;;;;;;;;;;;24.61;47.94;101717.28;13054698;22;20336;-68
2023/06/26 13:30:42;;;;;;;;;;;;;;;24.63;47.94;101716.13;13054879;22;20225;-69
2023/06/26 13:35:44;;;;;;;;;;;;;;;25.27;47.44;101717.59;13028332;22;19993;-69
2023/06/26 13:40:46;;;;;;;;;;;;;;;26.52;44.02;101724.59;13054512;22;19954;-68
2023/06/26 13:45:49;;;;;;;;;;;;;;;26.81;41.53;101723.19;13054569;22;20303;-69
2023/06/26 13:50:51;;;;;;;;;;;;;;;26.35;41.95;101720.28;13027359;22;19918;-69
2023/06/26 13:55:55;;;;;;;;;;;;;;;26.72;42.80;101735.00;13027575;22;19965;-69
2023/06/26 14:00:57;;;;;;;;;;;;;;;26.33;41.68;101730.34;13002484;22;19982;-69
2023/06/26 14:06:00;;;;;;;;;;;;;;;26.68;43.05;101734.50;13054066;22;20346;-69
2023/06/26 14:11:02;;;;;;;;;;;;;;;27.68;41.78;101729.53;13054740;22;19919;-69
2023/06/26 14:16:04;;;;;;;;;;;;;;;27.01;39.37;101733.56;13026725;22;20006;-68
2023/06/26 14:21:07;;;;;;;;;;;;;;;27.11;39.26;101744.94;13053788;22;20006;-69
2023/06/26 14:26:10;;;;;;;;;;;;;;;28.01;38.63;101743.63;13054441;22;19919;-68
2023/06/26 14:31:12;;;;;;;;;;;;;;;28.04;40.80;101750.47;13053645;22;20256;-69
2023/06/26 14:36:14;;;;;;;;;;;;;;;28.08;39.76;101749.94;13026751;22;19918;-69
2023/06/26 14:41:16;;;;;;;;;;;;;;;28.07;38.88;101750.13;13053815;22;19923;-69
2023/06/26 14:46:19;;;;;;;;;;;;;;;27.28;39.31;101761.81;13054137;22;19919;-69
2023/06/26 14:51:21;;;;;;;;;;;;;;;26.59;40.22;101764.19;13053936;22;19923;-68
2023/06/26 14:56:24;;;;;;;;;;;;;;;26.24;41.65;101776.97;13053859;22;20021;-68
2023/06/26 15:01:26;;;;;;;;;;;;;;;24.94;44.18;101763.00;13053036;22;20287;-68
2023/06/26 15:06:28;;;;;;;;;;;;;;;25.58;43.09;101766.97;13053741;22;19926;-68
2023/06/26 15:11:31;;;;;;;;;;;;;;;25.18;42.61;101768.50;13053682;22;19918;-68
2023/06/26 15:16:33;;;;;;;;;;;;;;;26.03;42.35;101767.59;13026520;22;20033;-69
2023/06/26 15:21:35;;;;;;;;;;;;;;;25.84;40.49;101760.66;13052663;22;19919;-69
2023/06/26 15:26:37;;;;;;;;;;;;;;;25.32;41.55;101766.22;13025691;22;20414;-69
2023/06/26 15:31:40;;;;;;;;;;;;;;;25.20;40.84;101773.66;13053363;22;19962;-69
2023/06/26 15:36:42;;;;;;;;;;;;;;;25.75;40.99;101770.50;13053286;22;19972;-69
2023/06/26 15:41:45;;;;;;;;;;;;;;;24.61;43.88;101770.81;13052779;22;19947;-69
2023/06/26 15:46:47;;;;;;;;;;;;;;;24.78;43.48;101777.97;13054060;22;19931;-68
2023/06/26 15:51:49;;;;;;;;;;;;;;;25.75;41.70;101770.50;13029778;22;20006;-68
2023/06/26 15:56:52;;;;;;;;;;;;;;;26.13;42.69;101770.94;13029492;22;19954;-68
2023/06/26 16:01:55;;;;;;;;;;;;;;;26.59;40.86;101773.09;13057470;22;19925;-68
2023/06/26 16:06:57;;;;;;;;;;;;;;;25.94;43.45;101773.91;13057337;22;19968;-69
2023/06/26 16:11:59;;;;;;;;;;;;;;;26.54;42.66;101767.38;13057248;22;19941;-68
2023/06/26 16:17:02;;;;;;;;;;;;;;;24.75;45.54;101772.09;13057016;22;19964;-68
2023/06/26 16:22:06;;;;;;;;;;;;;;;25.47;43.67;101761.91;13056242;22;19918;-68
2023/06/26 16:27:08;;;;;;;;;;;;;;;24.93;44.88;101769.34;13056997;22;19919;-68
2023/06/26 16:32:11;;;;;;;;;;;;;;;24.80;45.59;101772.47;13003750;22;19919;-68
2023/06/26 16:37:13;;;;;;;;;;;;;;;25.14;44.62;101766.28;13056664;22;19930;-68
2023/06/26 16:42:18;;;;;;;;;;;;;;;24.72;44.65;101773.25;13056014;22;19991;-69
2023/06/26 16:47:20;;;;;;;;;;;;;;;24.07;45.65;101769.06;13055701;22;19926;-69
2023/06/26 16:52:23;;;;;;;;;;;;;;;24.63;43.02;101775.03;13028545;22;19918;-69
2023/06/26 16:57:25;;;;;;;;;;;;;;;24.42;44.59;101772.66;13029063;22;19998;-70
2023/06/26 17:02:29;;;;;;;;;;;;;;;23.85;45.39;101775.66;13055902;22;19923;-70
2023/06/26 17:07:33;;;;;;;;;;;;;;;24.11;44.65;101778.44;13003931;22;19925;-70
2023/06/26 17:12:37;;;;;;;;;;;;;;;24.36;44.67;101775.13;13055983;22;19948;-69
2023/06/26 17:17:39;;;;;;;;;;;;;;;23.59;45.48;101775.53;13028806;22;19947;-69
2023/06/26 17:22:43;;;;;;;;;;;;;;;23.42;45.13;101779.00;13055740;22;19918;-69
2023/06/26 17:27:46;;;;;;;;;;;;;;;23.77;45.72;101783.59;13054857;22;19978;-69
2023/06/26 17:32:48;;;;;;;;;;;;;;;23.46;45.50;101788.41;13055535;22;19950;-69
2023/06/26 17:37:50;;;;;;;;;;;;;;;23.16;44.73;101799.22;13054490;22;19919;-69
2023/06/26 17:42:52;;;;;;;;;;;;;;;22.75;45.31;101792.44;13027596;22;19986;-69
2023/06/26 17:47:54;;;;;;;;;;;;;;;22.41;45.36;101807.09;13027304;22;19918;-69
2023/06/26 17:52:59;;;;;;;;;;;;;;;22.86;45.90;101802.94;13055197;22;19977;-69
2023/06/26 17:58:02;;;;;;;;;;;;;;;22.43;46.02;101797.13;13054167;22;20002;-69
2023/06/26 18:03:04;;;;;;;;;;;;;;;22.70;48.16;101811.56;13027920;22;19925;-69
2023/06/26 18:08:06;;;;;;;;;;;;;;;22.08;48.24;101811.81;13054098;22;20358;-69
2023/06/26 18:13:08;;;;;;;;;;;;;;;22.27;47.73;101824.34;13054816;22;19942;-69
2023/06/26 18:18:11;;;;;;;;;;;;;;;22.09;48.58;101826.00;13053832;22;20327;-68
2023/06/26 18:23:13;;;;;;;;;;;;;;;21.79;49.27;101829.59;13026643;22;20355;-69
2023/06/26 18:28:15;;;;;;;;;;;;;;;21.40;49.42;101838.28;13053665;22;19989;-69
2023/06/26 18:33:18;;;;;;;;;;;;;;;21.99;49.45;101834.00;13053614;22;20002;-68
2023/06/26 18:38:20;;;;;;;;;;;;;;;21.71;49.83;101836.44;13054203;22;19933;-68
2023/06/26 18:43:22;;;;;;;;;;;;;;;21.63;50.14;101836.28;13053389;22;19919;-69
2023/06/26 18:48:24;;;;;;;;;;;;;;;21.55;50.95;101835.25;13053434;22;20001;-69
2023/06/26 18:53:27;;;;;;;;;;;;;;;21.45;51.25;101845.84;13053855;22;20006;-68
2023/06/26 18:58:29;;;;;;;;;;;;;;;20.87;51.29;101847.22;13052956;22;19969;-69
2023/06/26 19:03:31;;;;;;;;;;;;;;;20.71;52.08;101844.16;13053142;22;20312;-69
2023/06/26 19:08:34;;;;;;;;;;;;;;;20.48;52.65;101852.22;13053819;22;19990;-69
2023/06/26 19:13:36;;;;;;;;;;;;;;;21.01;52.37;101859.34;13053791;22;19926;-68
2023/06/26 19:18:39;;;;;;;;;;;;;;;20.77;53.29;101859.63;13053549;22;19925;-68
2023/06/26 19:23:43;;;;;;;;;;;;;;;20.43;53.75;101862.41;13052454;22;20257;-69
2023/06/26 19:28:45;;;;;;;;;;;;;;;20.19;54.04;101860.78;13052726;22;19965;-68
2023/06/26 19:33:48;;;;;;;;;;;;;;;20.26;55.16;101860.28;13052584;22;20415;-68
2023/06/26 19:38:50;;;;;;;;;;;;;;;20.11;55.12;101871.19;13026279;22;19997;-68
2023/06/26 19:43:52;;;;;;;;;;;;;;;19.84;56.08;101874.28;13050617;22;19919;-68
2023/06/26 19:48:54;;;;;;;;;;;;;;;20.09;55.52;101878.47;13022775;22;20419;-68
2023/06/26 19:53:56;;;;;;;;;;;;;;;20.10;56.79;101877.47;13049730;22;20320;-68
2023/06/26 19:58:59;;;;;;;;;;;;;;;19.81;57.61;101899.25;13050321;22;19950;-68
2023/06/26 20:04:04;;;;;;;;;;;;;;;19.74;57.93;101900.69;13050314;22;20329;-68
2023/06/26 20:09:06;;;;;;;;;;;;;;;19.96;57.63;101897.19;13050201;22;19919;-68
2023/06/26 20:14:08;;;;;;;;;;;;;;;19.64;58.78;101903.22;13049979;22;19919;-68
2023/06/26 20:19:11;;;;;;;;;;;;;;;19.25;59.69;101910.66;13022148;22;20000;-68
2023/06/26 20:24:13;;;;;;;;;;;;;;;19.18;61.25;101903.28;13049110;22;19923;-68
2023/06/26 20:29:15;;;;;;;;;;;;;;;18.85;63.06;101919.00;13049821;22;19985;-68
2023/06/26 20:34:18;;;;;;;;;;;;;;;18.66;63.91;101910.66;13049744;22;19930;-68
2023/06/26 20:39:20;;;;;;;;;;;;;;;18.55;64.36;101911.47;13052786;22;19919;-68
2023/06/26 20:44:22;;;;;;;;;;;;;;;18.35;65.43;101918.22;12951148;22;1766343;-68
2023/06/26 20:49:25;;;;;;;;;;;;;;;18.14;67.20;101908.22;13028662;22;20391;-68
2023/06/26 20:54:27;;;;;;;;;;;;;;;18.10;68.08;101916.50;13056327;22;19919;-68
2023/06/26 20:59:29;;;;;;;;;;;;;;;17.90;68.41;101918.75;13056324;22;19926;-68
2023/06/26 21:04:32;;;;;;;;;;;;;;;17.90;69.01;101921.41;13056337;22;19919;-67
2023/06/26 21:09:37;;;;;;;;;;;;;;;17.88;70.29;101927.78;13056175;22;19982;-68
2023/06/26 21:14:39;;;;;;;;;;;;;;;17.62;71.08;101931.28;13055940;22;19993;-68
2023/06/26 21:19:42;;;;;;;;;;;;;;;17.64;71.60;101928.53;13055930;22;19942;-68
2023/06/26 21:24:44;;;;;;;;;;;;;;;17.55;71.81;101926.50;13055926;22;19946;-67
2023/06/26 21:29:46;;;;;;;;;;;;;;;17.50;72.36;101924.19;13055775;22;19981;-67
2023/06/26 21:34:48;;;;;;;;;;;;;;;17.49;72.84;101927.78;13054776;22;20319;-67
2023/06/26 21:39:51;;;;;;;;;;;;;;;17.35;73.77;101926.06;13054709;22;20346;-67
2023/06/26 21:44:53;;;;;;;;;;;;;;;17.04;76.94;101928.13;13054207;22;19925;-68
2023/06/26 21:49:55;;;;;;;;;;;;;;;16.95;77.43;101930.56;13054581;22;19919;-67
2023/06/26 21:54:57;;;;;;;;;;;;;;;16.89;77.80;101926.50;13055054;22;19923;-67
2023/06/26 22:00:00;;;;;;;;;;;;;;;17.04;77.43;101936.06;13055088;22;19950;-67
2023/06/26 22:05:02;;;;;;;;;;;;;;;17.06;77.83;101936.84;13027254;22;19926;-69
2023/06/26 22:10:04;;;;;;;;;;;;;;;16.87;79.35;101934.53;13054912;22;19926;-67
2023/06/26 22:15:07;;;;;;;;;;;;;;;16.95;79.41;101934.06;13026820;22;20002;-67
2023/06/26 22:20:10;;;;;;;;;;;;;;;16.84;80.83;101934.75;13053848;22;20285;-67
2023/06/26 22:25:12;;;;;;;;;;;;;;;16.83;81.22;101934.84;13054596;22;19982;-67
2023/06/26 22:30:15;;;;;;;;;;;;;;;16.71;82.43;101924.09;13026783;22;20249;-67
2023/06/26 22:35:18;;;;;;;;;;;;;;;16.76;82.11;101926.47;13053537;22;20465;-68
2023/06/26 22:40:20;;;;;;;;;;;;;;;16.62;82.82;101914.13;13027008;22;19919;-67
2023/06/26 22:45:22;;;;;;;;;;;;;;;16.57;83.46;101910.94;13026348;22;19998;-67
2023/06/26 22:50:26;;;;;;;;;;;;;;;16.25;85.64;101919.13;13054108;22;19926;-67
2023/06/26 22:55:30;;;;;;;;;;;;;;;16.41;84.13;101912.84;13053846;22;19923;-67
2023/06/26 23:00:32;;;;;;;;;;;;;;;16.37;84.47;101906.94;13053007;22;19941;-67
2023/06/26 23:05:36;;;;;;;;;;;;;;;16.25;87.13;101913.00;13053048;22;19919;-67
2023/06/26 23:10:39;;;;;;;;;;;;;;;16.07;87.87;101909.72;13026725;22;19972;-67
2023/06/26 23:15:42;;;;;;;;;;;;;;;16.16;88.05;101915.28;13052843;22;19919;-67
2023/06/26 23:20:44;;;;;;;;;;;;;;;16.25;87.46;101915.66;13053670;22;19925;-67
2023/06/26 23:25:47;;;;;;;;;;;;;;;16.13;88.77;101910.19;13052829;22;20371;-67
2023/06/26 23:30:49;;;;;;;;;;;;;;;16.03;88.66;101916.16;13053474;22;19930;-67
2023/06/26 23:35:53;;;;;;;;;;;;;;;16.15;87.27;101904.81;13053368;22;19919;-67
2023/06/26 23:40:55;;;;;;;;;;;;;;;16.06;87.31;101900.97;13052742;22;20332;-67
2023/06/26 23:45:58;;;;;;;;;;;;;;;16.19;87.00;101902.81;13052587;22;20325;-67
2023/06/26 23:51:00;;;;;;;;;;;;;;;16.26;87.05;101906.78;13053308;22;19982;-67
2023/06/26 23:56:03;;;;;;;;;;;;;;;16.28;85.52;101910.19;13052222;22;20387;-67
